Time;durP1;ratioP1;P1;durP2;ratioP2;P2;SDS_P1;SDS_P2;PMS_P1;PMS_P2;Temp;Humidity;BMP_temperature;BMP_pressure;BME280_temperature;BME280_humidity;BME280_pressure;Samples;Min_cycle;Max_cycle;Signal;HPM_P1;HPM_P2
2021/05/31 00:06:04;;;;;;;1999.90;999.90;;;;;;;10.73;63.58;102050.88;15861960;28;20043;-62
2021/05/31 00:13:36;;;;;;;1999.90;999.90;;;;;;;10.58;64.32;102056.69;15860430;28;20043;-62
2021/05/31 00:21:08;;;;;;;1999.90;999.90;;;;;;;10.32;64.99;102047.84;15859534;28;20039;-62
2021/05/31 00:28:40;;;;;;;1999.90;999.90;;;;;;;10.26;65.48;102040.66;15858733;28;20074;-63
2021/05/31 00:36:17;;;;;;;1999.90;999.90;;;;;;;10.20;65.45;102044.59;15860054;28;20059;-63
2021/05/31 00:43:49;;;;;;;1999.90;999.90;;;;;;;9.95;66.05;102046.56;15861512;28;20054;-63
2021/05/31 00:51:22;;;;;;;1999.90;999.90;;;;;;;9.80;66.12;102032.81;15872293;22;20036;-64
2021/05/31 00:58:54;;;;;;;1999.90;999.90;;;;;;;9.42;65.45;102026.25;15815171;28;20066;-65
2021/05/31 01:06:31;;;;;;;1999.90;999.90;;;;;;;9.79;64.85;102022.78;15783400;28;20040;-65
2021/05/31 01:14:08;;;;;;;1999.90;999.90;;;;;;;9.71;65.77;102024.28;15774245;28;20047;-63
2021/05/31 01:21:56;;;;;;;1999.90;999.90;;;;;;;9.50;67.04;102018.09;15817891;28;20044;-64
2021/05/31 01:29:29;;;;;;;1999.90;999.90;;;;;;;9.31;66.41;102016.31;15820181;28;20055;-62
2021/05/31 01:37:03;;;;;;;1999.90;999.90;;;;;;;9.22;67.25;102019.75;15814919;28;20040;-64
2021/05/31 01:44:37;;;;;;;1999.90;999.90;;;;;;;9.20;67.94;102004.44;15814160;28;20044;-64
2021/05/31 01:52:10;;;;;;;1999.90;999.90;;;;;;;9.02;68.07;102006.00;15815608;28;20185;-64
2021/05/31 01:59:43;;;;;;;1999.90;999.90;;;;;;;9.13;67.81;102013.13;15816894;28;20128;-65
2021/05/31 02:07:14;;;;;;;1999.90;999.90;;;;;;;8.87;68.70;102004.19;15804445;28;20139;-65
2021/05/31 02:14:54;;;;;;;1999.90;999.90;;;;;;;8.98;68.32;101990.16;15807712;28;20040;-65
2021/05/31 02:22:26;;;;;;;1999.90;999.90;;;;;;;8.79;69.23;101982.53;15809659;28;20040;-63
2021/05/31 02:30:00;;;;;;;1999.90;999.90;;;;;;;8.74;69.64;101976.97;15805843;28;20032;-63
2021/05/31 02:37:35;;;;;;;1999.90;999.90;;;;;;;8.80;68.69;101972.22;15826173;28;20476;-65
2021/05/31 02:45:09;;;;;;;1999.90;999.90;;;;;;;8.74;69.03;101974.19;15828816;28;20044;-63
2021/05/31 02:52:42;;;;;;;1999.90;999.90;;;;;;;8.51;69.56;101977.72;15818761;28;20519;-64
2021/05/31 03:00:17;;;;;;;1999.90;999.90;;;;;;;8.43;69.74;101979.16;15817573;28;20062;-64
2021/05/31 03:07:49;;;;;;;1999.90;999.90;;;;;;;8.40;70.39;101968.59;15784396;28;20040;-65
2021/05/31 03:15:22;;;;;;;1999.90;999.90;;;;;;;8.37;69.99;101991.44;15815170;28;20036;-64
2021/05/31 03:22:54;;;;;;;;;;;;;;;8.47;70.34;101996.94;15798792;28;20097;-64
2021/05/31 03:30:28;;;;;;;1999.90;999.90;;;;;;;8.53;70.87;101994.94;15825930;28;19920;-64
2021/05/31 03:38:00;;;;;;;1999.90;999.90;;;;;;;8.89;70.47;101992.75;15829464;28;20051;-63
2021/05/31 03:45:33;;;;;;;1999.90;999.90;;;;;;;9.01;70.15;101984.00;15817312;28;20481;-65
2021/05/31 03:53:05;;;;;;;1999.90;999.90;;;;;;;9.23;69.78;101995.50;15782491;28;20052;-65
2021/05/31 04:00:38;;;;;;;1999.90;999.90;;;;;;;9.40;69.92;101987.53;15813887;28;20428;-65
2021/05/31 04:16:00;;;;;;;1999.90;999.90;;;;;;;9.92;69.07;101987.78;15807104;28;20059;-65
2021/05/31 04:23:32;;;;;;;1999.90;999.90;;;;;;;10.04;68.32;102000.16;15818274;28;20048;-65
2021/05/31 04:31:05;;;;;;;1999.90;999.90;;;;;;;10.30;68.03;101994.28;15816409;28;20044;-65
2021/05/31 04:38:36;;;;;;;1999.90;999.90;;;;;;;10.69;67.44;101988.41;15818094;28;20081;-65
2021/05/31 04:46:09;;;;;;;1999.90;999.90;;;;;;;10.92;67.99;101995.00;15800186;28;20457;-65
2021/05/31 04:53:41;;;;;;;1999.90;999.90;;;;;;;11.34;67.86;101994.00;15798221;28;20040;-64
2021/05/31 05:01:14;;;;;;;1999.90;999.90;;;;;;;11.71;66.64;101995.81;15798365;28;20135;-65
2021/05/31 05:08:45;;;;;;;1999.90;999.90;;;;;;;12.14;66.67;101996.34;15797999;28;20032;-65
2021/05/31 05:16:21;;;;;;;1999.90;999.90;;;;;;;13.20;63.17;102000.59;15817627;28;20074;-64
2021/05/31 05:23:52;;;;;;;;;;;;;;;13.99;61.52;102002.63;15817839;28;20115;-62
2021/05/31 05:31:25;;;;;;;1999.90;999.90;;;;;;;14.61;58.72;102008.06;15805475;28;19981;-63
2021/05/31 05:46:49;;;;;;;1999.90;999.90;;;;;;;15.85;54.86;102012.03;15803574;28;20056;-64
2021/05/31 05:54:21;;;;;;;1999.90;999.90;;;;;;;15.75;55.17;102006.78;15807731;28;20047;-63
2021/05/31 06:01:54;;;;;;;1999.90;999.90;;;;;;;15.90;54.20;101997.75;15824086;28;20044;-65
2021/05/31 06:09:26;;;;;;;1999.90;999.90;;;;;;;17.41;50.65;102011.72;15786297;28;20040;-64
2021/05/31 06:17:01;;;;;;;1999.90;999.90;;;;;;;17.55;47.90;102011.38;15822109;28;20078;-63
2021/05/31 06:24:33;;;;;;;1999.90;999.90;;;;;;;17.76;47.71;102019.81;15822794;28;20075;-67
2021/05/31 06:32:06;;;;;;;1999.90;999.90;;;;;;;18.01;48.24;102023.47;15806971;28;20036;-65
2021/05/31 06:39:38;;;;;;;1999.90;999.90;;;;;;;18.01;47.58;102024.28;15777520;28;20036;-65
2021/05/31 06:47:11;;;;;;;1999.90;999.90;;;;;;;18.82;46.38;102022.47;15801820;28;20158;-67
2021/05/31 06:54:42;;;;;;;1999.90;999.90;;;;;;;19.72;45.56;102023.03;15830993;22;20070;-65
2021/05/31 07:02:16;;;;;;;1999.90;999.90;;;;;;;20.45;44.55;102020.44;15875688;28;20038;-62
2021/05/31 07:09:47;;;;;;;1999.90;999.90;;;;;;;21.34;40.95;102010.19;15873191;28;20066;-58
2021/05/31 07:17:20;;;;;;;1999.90;999.90;;;;;;;21.08;41.82;102010.03;15870360;28;20035;-65
2021/05/31 07:24:52;;;;;;;;;;;;;;;21.13;43.15;102004.06;15874034;28;20047;-64
2021/05/31 07:32:25;;;;;;;1999.90;999.90;;;;;;;22.13;43.19;102006.78;15870807;28;19927;-63
2021/05/31 07:39:56;;;;;;;1999.90;999.90;;;;;;;21.82;43.41;102008.66;15850556;28;20162;-63
2021/05/31 07:47:29;;;;;;;1999.90;999.90;;;;;;;22.92;39.13;102000.19;15868845;28;20043;-63
2021/05/31 07:55:01;;;;;;;;;;;;;;;22.41;38.56;101997.88;15857483;28;20627;-64
2021/05/31 08:02:35;;;;;;;1999.90;999.90;;;;;;;22.97;38.20;101997.84;15862789;28;20010;-58
2021/05/31 08:10:07;;;;;;;1999.90;999.90;;;;;;;23.60;39.21;101996.97;15864397;28;20059;-64
2021/05/31 08:17:41;;;;;;;;;;;;;;;24.12;35.09;101994.97;15847737;28;20074;-64
2021/05/31 08:25:15;;;;;;;1999.90;999.90;;;;;;;23.48;35.17;101991.50;15863087;28;20407;-63
2021/05/31 08:32:48;;;;;;;1999.90;999.90;;;;;;;24.64;37.23;101992.91;15864965;28;20052;-64
2021/05/31 08:40:21;;;;;;;1999.90;999.90;;;;;;;25.33;35.42;101977.69;15865633;28;20046;-65
2021/05/31 08:47:54;;;;;;;1999.90;999.90;;;;;;;25.12;34.34;101983.34;15864670;28;20092;-62
2021/05/31 08:55:28;;;;;;;1999.90;999.90;;;;;;;24.69;33.15;101983.94;15865284;28;20340;-64
2021/05/31 09:03:03;;;;;;;1999.90;999.90;;;;;;;25.95;33.96;101982.25;15864116;28;20075;-65
2021/05/31 09:10:37;;;;;;;1999.90;999.90;;;;;;;26.20;29.08;101991.66;15858775;28;20044;-64
2021/05/31 09:18:10;;;;;;;1999.90;999.90;;;;;;;26.12;32.04;101984.31;15870687;28;20395;-64
2021/05/31 09:25:42;;;;;;;1999.90;999.90;;;;;;;26.47;33.86;101974.91;15825231;28;20190;-65
2021/05/31 09:33:16;;;;;;;1999.90;999.90;;;;;;;26.22;28.88;101968.34;15875319;28;20467;-64
2021/05/31 09:40:52;;;;;;;1999.90;999.90;;;;;;;26.79;30.32;101966.19;15875208;28;20039;-64
2021/05/31 09:48:33;;;;;;;1999.90;999.90;;;;;;;25.75;29.22;101967.59;15874876;28;20082;-62
2021/05/31 09:56:13;;;;;;;1999.90;999.90;;;;;;;27.03;26.83;101968.16;15873837;28;20407;-64
2021/05/31 10:03:54;;;;;;;1999.90;999.90;;;;;;;27.46;27.36;101962.16;15875089;28;20036;-66
2021/05/31 10:11:26;;;;;;;1999.90;999.90;;;;;;;26.70;28.13;101948.66;15873307;28;20051;-64
2021/05/31 10:18:59;;;;;;;1999.90;999.90;;;;;;;26.88;27.02;101940.75;15852183;28;20044;-64
2021/05/31 10:26:33;;;;;;;1999.90;999.90;;;;;;;28.18;25.13;101943.13;15859956;27;20400;-65
2021/05/31 10:34:18;;;;;;;1999.90;999.90;;;;;;;27.19;27.73;101939.00;15810300;28;20048;-63
2021/05/31 10:41:49;;;;;;;1999.90;999.90;;;;;;;28.98;28.94;101924.59;15871882;28;20071;-65
2021/05/31 10:49:22;;;;;;;1999.90;999.90;;;;;;;29.35;26.51;101919.94;15847353;28;20105;-64
2021/05/31 10:57:04;;;;;;;1999.90;999.90;;;;;;;28.40;26.61;101922.84;15811498;28;20048;-61
2021/05/31 11:04:37;;;;;;;;;;;;;;;29.88;23.63;101904.69;15809445;28;20504;-64
2021/05/31 11:12:11;;;;;;;1999.90;999.90;;;;;;;29.33;25.17;101902.31;15820280;27;19954;-63
2021/05/31 11:19:45;;;;;;;1999.90;999.90;;;;;;;28.16;25.21;101896.03;15871059;27;20036;-63
2021/05/31 11:27:17;;;;;;;1999.90;999.90;;;;;;;28.55;24.07;101894.75;15869569;28;20043;-63
2021/05/31 11:34:54;;;;;;;1999.90;999.90;;;;;;;29.71;26.04;101882.81;15870568;28;20040;-63
2021/05/31 11:42:29;;;;;;;1999.90;999.90;;;;;;;30.54;22.02;101882.88;15869187;28;20407;-63
2021/05/31 11:50:03;;;;;;;1999.90;999.90;;;;;;;29.85;24.76;101875.97;15867935;28;20051;-64
2021/05/31 11:57:39;;;;;;;1999.90;999.90;;;;;;;29.70;21.03;101863.09;15851274;28;20036;-64
2021/05/31 12:05:13;;;;;;;1999.90;999.90;;;;;;;30.04;21.15;101865.75;15851336;28;20472;-65
2021/05/31 12:12:47;;;;;;;1999.90;999.90;;;;;;;30.22;20.28;101863.34;15851922;28;20040;-64
2021/05/31 12:20:23;;;;;;;1999.90;999.90;;;;;;;30.79;18.99;101850.66;15869209;28;20051;-63
2021/05/31 12:27:56;;;;;;;1999.90;999.90;;;;;;;31.93;18.86;101839.16;15868920;28;20051;-63
2021/05/31 12:35:29;;;;;;;1999.90;999.90;;;;;;;33.15;19.12;101824.78;15867429;28;20142;-64
2021/05/31 12:43:02;;;;;;;1999.90;999.90;;;;;;;33.48;16.97;101831.94;15868124;28;20055;-63
2021/05/31 12:50:36;;;;;;;1999.90;999.90;;;;;;;35.74;14.40;101828.47;15866233;28;20393;-61
2021/05/31 12:58:13;;;;;;;1999.90;999.90;;;;;;;36.96;14.51;101833.16;15866232;28;20503;-64
2021/05/31 13:05:49;;;;;;;1999.90;999.90;;;;;;;34.60;15.51;101815.81;15865567;28;20576;-65
2021/05/31 13:13:32;;;;;;;1999.90;999.90;;;;;;;26.34;21.51;101799.91;15866082;28;20047;-65
2021/05/31 13:21:08;;;;;;;1999.90;999.90;;;;;;;26.25;22.82;101775.84;15866035;28;20128;-63
2021/05/31 13:28:41;;;;;;;1999.90;999.90;;;;;;;26.74;23.48;101777.66;15860009;28;20488;-64
2021/05/31 13:36:19;;;;;;;1999.90;999.90;;;;;;;26.08;23.08;101766.13;15863728;28;20047;-63
2021/05/31 13:43:52;;;;;;;1999.90;999.90;;;;;;;25.09;25.68;101761.41;15845856;28;20127;-64
2021/05/31 13:51:25;;;;;;;;;;;;;;;26.43;23.03;101762.31;15862937;28;20051;-64
2021/05/31 13:58:57;;;;;;;1999.90;999.90;;;;;;;25.21;26.11;101743.84;15862901;28;19930;-64
2021/05/31 14:06:30;;;;;;;1999.90;999.90;;;;;;;25.96;29.10;101746.59;15874924;28;20058;-65
2021/05/31 14:14:02;;;;;;;1999.90;999.90;;;;;;;25.87;25.99;101733.53;15862319;28;20088;-65
2021/05/31 14:21:35;;;;;;;1999.90;999.90;;;;;;;25.80;26.51;101724.16;15875388;28;20127;-64
2021/05/31 14:29:07;;;;;;;1999.90;999.90;;;;;;;26.23;29.07;101712.53;15875477;28;20039;-64
2021/05/31 14:36:39;;;;;;;1999.90;999.90;;;;;;;25.25;25.85;101711.22;15869804;28;20479;-66
2021/05/31 14:44:11;;;;;;;1999.90;999.90;;;;;;;25.01;29.17;101692.88;15866355;28;20047;-64
2021/05/31 14:51:44;;;;;;;1999.90;999.90;;;;;;;24.68;28.40;101696.91;15853584;28;20381;-64
2021/05/31 14:59:16;;;;;;;1999.90;999.90;;;;;;;24.88;29.42;101688.78;15842417;28;20040;-64
2021/05/31 15:06:49;;;;;;;1999.90;999.90;;;;;;;24.90;24.79;101682.66;15873550;28;20089;-65
2021/05/31 15:14:20;;;;;;;1999.90;999.90;;;;;;;24.43;26.40;101676.13;15871316;28;20055;-64
2021/05/31 15:21:53;;;;;;;1999.90;999.90;;;;;;;24.34;26.38;101661.44;15870839;28;20054;-63
2021/05/31 15:29:25;;;;;;;1999.90;999.90;;;;;;;24.91;28.45;101658.63;15871532;28;20062;-63
2021/05/31 15:36:58;;;;;;;1999.90;999.90;;;;;;;24.65;26.33;101645.56;15872161;27;20500;-62
2021/05/31 15:44:31;;;;;;;1999.90;999.90;;;;;;;24.30;27.75;101629.22;15870223;28;20532;-63
2021/05/31 15:52:05;;;;;;;1999.90;999.90;;;;;;;24.30;28.00;101632.06;15871158;28;20051;-62
2021/05/31 15:59:36;;;;;;;1999.90;999.90;;;;;;;24.51;27.58;101634.16;15852487;28;20040;-63
2021/05/31 16:07:09;;;;;;;1999.90;999.90;;;;;;;24.00;25.88;101621.84;15869310;28;20546;-64
2021/05/31 16:14:41;;;;;;;1999.90;999.90;;;;;;;24.07;29.25;101621.00;15857716;28;20042;-64
2021/05/31 16:22:18;;;;;;;1999.90;999.90;;;;;;;24.15;28.81;101611.25;15869159;28;20464;-62
2021/05/31 16:29:50;;;;;;;1999.90;999.90;;;;;;;24.10;30.70;101605.97;15867716;28;20512;-62
2021/05/31 16:37:23;;;;;;;1999.90;999.90;;;;;;;23.75;29.85;101607.50;15850463;28;20141;-63
2021/05/31 16:44:54;;;;;;;1999.90;999.90;;;;;;;23.39;28.62;101597.16;15867009;28;20494;-62
2021/05/31 16:52:27;;;;;;;1999.90;999.90;;;;;;;23.67;30.35;101596.50;15868749;28;20214;-64
2021/05/31 16:59:59;;;;;;;1999.90;999.90;;;;;;;23.26;29.37;101597.50;15850173;28;20059;-63
2021/05/31 17:07:34;;;;;;;1999.90;999.90;;;;;;;23.22;29.82;101595.84;15868740;28;20075;-63
2021/05/31 17:15:17;;;;;;;1999.90;999.90;;;;;;;22.85;28.85;101588.31;15867370;28;20058;-63
2021/05/31 17:22:51;;;;;;;1999.90;999.90;;;;;;;22.77;29.47;101590.28;15866824;28;20052;-65
2021/05/31 17:30:24;;;;;;;1999.90;999.90;;;;;;;22.76;30.46;101587.81;15866453;28;20526;-62
2021/05/31 17:37:58;;;;;;;1999.90;999.90;;;;;;;22.44;29.82;101599.78;15874623;28;20381;-62
2021/05/31 17:45:30;;;;;;;1999.90;999.90;;;;;;;22.50;31.22;101585.19;15877870;28;20054;-61
2021/05/31 17:53:04;;;;;;;1999.90;999.90;;;;;;;22.17;31.96;101584.09;15879609;28;20496;-61
2021/05/31 18:00:36;;;;;;;1999.90;999.90;;;;;;;22.02;32.99;101599.34;15880037;28;20508;-65
2021/05/31 18:08:12;;;;;;;1999.90;999.90;;;;;;;21.85;32.50;101603.63;15880042;28;20048;-62
2021/05/31 18:15:45;;;;;;;1999.90;999.90;;;;;;;21.61;33.29;101597.28;15879104;28;20138;-64
2021/05/31 18:23:18;;;;;;;1999.90;999.90;;;;;;;21.55;35.61;101600.84;15877824;28;20039;-64
2021/05/31 18:30:50;;;;;;;;;;;;;;;21.75;37.56;101598.63;15878428;28;20043;-67
2021/05/31 18:38:23;;;;;;;1999.90;999.90;;;;;;;21.43;37.73;101596.22;15875207;28;19920;-62
2021/05/31 18:45:57;;;;;;;1999.90;999.90;;;;;;;21.18;37.76;101597.91;15873993;28;20046;-64
2021/05/31 18:53:31;;;;;;;1999.90;999.90;;;;;;;21.01;39.84;101590.75;15875577;28;20515;-61
2021/05/31 19:01:03;;;;;;;1999.90;999.90;;;;;;;20.65;40.10;101598.75;15868558;28;20404;-64
2021/05/31 19:08:43;;;;;;;1999.90;999.90;;;;;;;20.35;40.84;101603.47;15877298;28;20046;-65
2021/05/31 19:16:17;;;;;;;1999.90;999.90;;;;;;;20.08;41.76;101609.06;15875695;28;20058;-63
2021/05/31 19:23:52;;;;;;;1999.90;999.90;;;;;;;19.71;43.00;101613.63;15872810;28;20063;-63
2021/05/31 19:31:24;;;;;;;1999.90;999.90;;;;;;;19.33;43.84;101624.53;15874403;28;20044;-63
2021/05/31 19:38:57;;;;;;;1999.90;999.90;;;;;;;19.02;45.81;101624.63;15871620;28;20046;-62
2021/05/31 19:46:29;;;;;;;1999.90;999.90;;;;;;;18.63;46.08;101630.13;15870979;28;20048;-62
2021/05/31 19:54:25;;;;;;;1999.90;999.90;;;;;;;18.40;48.23;101631.97;15868423;28;20035;-63
2021/05/31 20:01:57;;;;;;;1999.90;999.90;;;;;;;18.04;49.61;101627.38;15849906;28;20071;-63
2021/05/31 20:09:31;;;;;;;1999.90;999.90;;;;;;;17.84;49.85;101630.06;15868510;28;20063;-61
2021/05/31 20:17:04;;;;;;;1999.90;999.90;;;;;;;17.57;49.56;101630.84;15833344;28;20085;-61
2021/05/31 20:24:37;;;;;;;;;;;;;;;17.39;51.34;101629.50;15868940;28;20048;-63
2021/05/31 20:32:10;;;;;;;1999.90;999.90;;;;;;;17.07;52.35;101625.72;15866471;28;19927;-61
2021/05/31 20:39:44;;;;;;;1999.90;999.90;;;;;;;16.89;52.55;101611.91;15867003;28;20054;-62
2021/05/31 20:47:15;;;;;;;;;;;;;;;16.63;53.12;101619.84;15866543;28;20309;-61
2021/05/31 20:54:49;;;;;;;1999.90;999.90;;;;;;;16.37;53.08;101617.41;15849806;28;19920;-61
2021/05/31 21:02:21;;;;;;;1999.90;999.90;;;;;;;16.20;55.49;101614.78;15868349;28;20042;-61
2021/05/31 21:09:56;;;;;;;1999.90;999.90;;;;;;;16.09;56.35;101608.78;15872246;28;20043;-62
2021/05/31 21:17:29;;;;;;;1999.90;999.90;;;;;;;16.01;55.75;101612.50;15880979;28;20055;-62
2021/05/31 21:25:03;;;;;;;1999.90;999.90;;;;;;;15.84;55.24;101614.38;15879307;28;20557;-59
2021/05/31 21:32:36;;;;;;;1999.90;999.90;;;;;;;15.59;56.11;101607.78;15878446;28;20050;-62
2021/05/31 21:40:10;;;;;;;1999.90;999.90;;;;;;;15.43;57.80;101608.78;15879508;28;20047;-62
2021/05/31 21:47:42;;;;;;;1999.90;999.90;;;;;;;15.27;58.42;101608.56;15860935;28;20048;-61
2021/05/31 21:55:16;;;;;;;1999.90;999.90;;;;;;;15.15;59.63;101609.31;15860325;28;20054;-62
2021/05/31 22:02:48;;;;;;;1999.90;999.90;;;;;;;14.95;60.84;101610.97;15876207;28;20078;-62
2021/05/31 22:10:22;;;;;;;1999.90;999.90;;;;;;;14.93;60.59;101607.66;15875796;28;20044;-61
2021/05/31 22:17:53;;;;;;;1999.90;999.90;;;;;;;14.77;60.67;101611.41;15875261;28;20055;-61
2021/05/31 22:25:26;;;;;;;1999.90;999.90;;;;;;;14.69;60.81;101616.75;15875609;28;20059;-62
2021/05/31 22:33:00;;;;;;;1999.90;999.90;;;;;;;14.50;62.36;101615.53;15876370;28;20059;-62
2021/05/31 22:40:36;;;;;;;1999.90;999.90;;;;;;;14.20;62.04;101609.03;15875794;28;20071;-61
2021/05/31 22:56:15;;;;;;;1999.90;999.90;;;;;;;14.11;61.98;101615.50;15873909;28;20047;-61
2021/05/31 23:03:58;;;;;;;1999.90;999.90;;;;;;;14.08;63.35;101604.13;15871848;28;20057;-62
2021/05/31 23:19:21;;;;;;;1999.90;999.90;;;;;;;13.92;63.20;101597.38;15867721;28;20323;-61
2021/05/31 23:26:54;;;;;;;1999.90;999.90;;;;;;;13.92;63.54;101589.78;15869535;28;20096;-60
2021/05/31 23:34:25;;;;;;;1999.90;999.90;;;;;;;13.80;63.55;101578.44;15869134;28;20048;-62
2021/05/31 23:41:58;;;;;;;1999.90;999.90;;;;;;;13.70;63.78;101588.03;15872004;28;20495;-63
2021/05/31 23:49:30;;;;;;;1999.90;999.90;;;;;;;13.51;64.11;101579.16;15870337;28;20047;-63
2021/05/31 23:57:05;;;;;;;1999.90;999.90;;;;;;;13.48;64.65;101582.63;15870226;28;20039;-62
